RA73750 OSDI-OSLK
Flight info
| Callsign | RA73750 |
|---|---|
| Flight time | N/A |
| Altitude | 25000 |
| Route | LEB1 LEBOR L513 BRAVO BRAV1C |
| Aircraft | C750/M-SBDE3FGHRWXY/H |
Departure
| Time | 2026-05-06 16:57 |
|---|---|
| Airport | Damascus International Airport (OSDI) |
Arrival
| Time | N/A |
|---|---|
| Airport | Latakia International Airport (OSLK) |
| Time | Latitude | Longitude | Altitude | Speed | Heading |
|---|---|---|---|---|---|
| 2026-05-06 16:29 | 33.41342 | 36.51579 | 2013 ft | 0 kts | 51° |
| 2026-05-06 16:48 | 33.41336 | 36.51569 | 2013 ft | 3 kts | 51° |
| 2026-05-06 16:48 | 33.41324 | 36.51551 | 2011 ft | 3 kts | 51° |
| 2026-05-06 16:48 | 33.41312 | 36.51534 | 2010 ft | 3 kts | 51° |
| 2026-05-06 16:49 | 33.41306 | 36.51513 | 2010 ft | 3 kts | 102° |
| 2026-05-06 16:49 | 33.41315 | 36.51494 | 2012 ft | 3 kts | 136° |
| 2026-05-06 16:49 | 33.41324 | 36.51484 | 2012 ft | 0 kts | 136° |
| 2026-05-06 16:51 | 33.41319 | 36.51489 | 2011 ft | 4 kts | 137° |
| 2026-05-06 16:52 | 33.41279 | 36.51531 | 2015 ft | 9 kts | 139° |
| 2026-05-06 16:52 | 33.41224 | 36.51579 | 2013 ft | 10 kts | 144° |
| 2026-05-06 16:52 | 33.41166 | 36.51630 | 2013 ft | 11 kts | 140° |
| 2026-05-06 16:52 | 33.41118 | 36.51697 | 2013 ft | 11 kts | 104° |
| 2026-05-06 16:53 | 33.41128 | 36.51786 | 2013 ft | 11 kts | 56° |
| 2026-05-06 16:53 | 33.41171 | 36.51866 | 2012 ft | 12 kts | 83° |
| 2026-05-06 16:53 | 33.41154 | 36.51973 | 2012 ft | 13 kts | 131° |
| 2026-05-06 16:53 | 33.41086 | 36.52047 | 2013 ft | 14 kts | 138° |
| 2026-05-06 16:54 | 33.41018 | 36.52127 | 2013 ft | 14 kts | 136° |
| 2026-05-06 16:54 | 33.40948 | 36.52204 | 2013 ft | 14 kts | 139° |
| 2026-05-06 16:54 | 33.40876 | 36.52278 | 2014 ft | 14 kts | 140° |
| 2026-05-06 16:54 | 33.40802 | 36.52348 | 2014 ft | 13 kts | 149° |
| 2026-05-06 16:55 | 33.40736 | 36.52408 | 2013 ft | 10 kts | 142° |
| 2026-05-06 16:55 | 33.40669 | 36.52444 | 2013 ft | 11 kts | 182° |
| 2026-05-06 16:55 | 33.40595 | 36.52425 | 2012 ft | 10 kts | 216° |
| 2026-05-06 16:55 | 33.40551 | 36.52371 | 2009 ft | 6 kts | 228° |
| 2026-05-06 16:56 | 33.40550 | 36.52369 | 2010 ft | 0 kts | 228° |
| 2026-05-06 16:56 | 33.40540 | 36.52357 | 2010 ft | 8 kts | 228° |
| 2026-05-06 16:56 | 33.40446 | 36.52231 | 2011 ft | 42 kts | 228° |
| 2026-05-06 16:56 | 33.40007 | 36.51634 | 2033 ft | 136 kts | 228° |
| 2026-05-06 16:57 | 33.39361 | 36.50729 | 2655 ft | 147 kts | 231° |
| 2026-05-06 16:57 | 33.38670 | 36.49789 | 3474 ft | 154 kts | 231° |
| 2026-05-06 16:57 | 33.37925 | 36.48803 | 4199 ft | 166 kts | 233° |
| 2026-05-06 16:57 | 33.37126 | 36.47726 | 4948 ft | 180 kts | 232° |
| 2026-05-06 16:58 | 33.36264 | 36.46569 | 5683 ft | 198 kts | 232° |
| 2026-05-06 16:58 | 33.35306 | 36.45290 | 6454 ft | 215 kts | 231° |
| 2026-05-06 16:58 | 33.34260 | 36.43897 | 7196 ft | 234 kts | 231° |
| 2026-05-06 16:58 | 33.33125 | 36.42388 | 7972 ft | 253 kts | 232° |
| 2026-05-06 16:59 | 33.32324 | 36.41322 | 8557 ft | 263 kts | 231° |
| 2026-05-06 16:59 | 33.30588 | 36.39256 | 9955 ft | 276 kts | 220° |
| 2026-05-06 16:59 | 33.29381 | 36.38636 | 10353 ft | 296 kts | 199° |
| 2026-05-06 16:59 | 33.27185 | 36.38667 | 10512 ft | 340 kts | 171° |
| 2026-05-06 17:00 | 33.24989 | 36.40051 | 10670 ft | 375 kts | 141° |
| 2026-05-06 17:00 | 33.23494 | 36.42622 | 11498 ft | 381 kts | 114° |
| 2026-05-06 17:00 | 33.23014 | 36.45713 | 12187 ft | 387 kts | 88° |
| 2026-05-06 17:00 | 33.23654 | 36.48831 | 12866 ft | 386 kts | 61° |
| 2026-05-06 17:01 | 33.25298 | 36.51302 | 13621 ft | 377 kts | 34° |
| 2026-05-06 17:01 | 33.27592 | 36.52668 | 14311 ft | 364 kts | 8° |
| 2026-05-06 17:01 | 33.30032 | 36.52705 | 14970 ft | 351 kts | 343° |
| 2026-05-06 17:01 | 33.32268 | 36.51628 | 15701 ft | 344 kts | 328° |
| 2026-05-06 17:02 | 33.34384 | 36.50263 | 16464 ft | 347 kts | 327° |
| 2026-05-06 17:02 | 33.36674 | 36.49205 | 17063 ft | 364 kts | 343° |
| 2026-05-06 17:02 | 33.39222 | 36.49189 | 17843 ft | 373 kts | 355° |
| 2026-05-06 17:02 | 33.41828 | 36.49228 | 18599 ft | 375 kts | 352° |
| 2026-05-06 17:03 | 33.44451 | 36.49071 | 19256 ft | 378 kts | 349° |
| 2026-05-06 17:03 | 33.47106 | 36.48959 | 19943 ft | 386 kts | 353° |
| 2026-05-06 17:03 | 33.49798 | 36.49141 | 20657 ft | 396 kts | 358° |